createdAt,value
2023-01-25T00:03:02.322Z,2.10
2023-01-25T00:18:04.858Z,1.90
2023-01-25T00:33:37.525Z,1.70
2023-01-25T00:48:40.019Z,1.70
2023-01-25T01:03:42.388Z,1.70
2023-01-25T01:18:45.819Z,1.70
2023-01-25T01:33:53.954Z,1.70
2023-01-25T01:48:57.424Z,1.60
2023-01-25T02:04:02.882Z,1.50
2023-01-25T02:19:07.399Z,1.60
2023-01-25T02:34:10.045Z,1.30
2023-01-25T02:49:16.796Z,1.70
2023-01-25T03:04:19.421Z,1.30
2023-01-25T03:19:23.483Z,1.30
2023-01-25T03:34:26.019Z,1.20
2023-01-25T03:49:29.151Z,1.40
2023-01-25T04:04:31.782Z,1.30
2023-01-25T04:19:34.411Z,1.50
2023-01-25T04:34:38.762Z,1.50
2023-01-25T04:49:45.563Z,1.90
2023-01-25T05:04:50.392Z,2.00
2023-01-25T05:19:55.550Z,0.50
2023-01-25T05:35:00.841Z,1.80
2023-01-25T05:50:04.348Z,2.40
2023-01-25T06:05:21.690Z,2.80
2023-01-25T06:20:26.113Z,3.30
2023-01-25T06:35:40.519Z,3.30
2023-01-25T06:50:42.858Z,3.60
2023-01-25T07:05:46.187Z,3.70
2023-01-25T07:20:50.547Z,2.20
2023-01-25T07:35:53.000Z,3.30
2023-01-25T07:51:11.748Z,2.40
2023-01-25T08:06:14.288Z,2.90
2023-01-25T08:21:16.767Z,2.90
2023-01-25T08:36:20.956Z,2.50
2023-01-25T08:51:24.320Z,2.10
2023-01-25T09:06:26.746Z,2.70
2023-01-25T09:21:30.057Z,2.90
2023-01-25T09:36:32.415Z,2.60
2023-01-25T09:52:09.515Z,1.80
2023-01-25T10:07:27.413Z,2.20
2023-01-25T10:22:36.560Z,2.60
2023-01-25T10:37:39.223Z,2.10
2023-01-25T10:52:59.766Z,2.20
2023-01-25T11:08:25.684Z,2.60
2023-01-25T11:23:28.130Z,2.10
2023-01-25T11:38:30.979Z,2.20
2023-01-25T11:54:19.518Z,1.40
2023-01-25T12:09:37.152Z,2.60
2023-01-25T12:25:07.468Z,2.90
2023-01-25T12:40:15.384Z,3.20
2023-01-25T12:55:18.466Z,3.50
2023-01-25T13:10:27.098Z,2.80
2023-01-25T13:25:29.627Z,2.90
2023-01-25T13:40:39.645Z,2.90
2023-01-25T13:55:46.309Z,2.50
2023-01-25T14:10:49.996Z,2.90
2023-01-25T14:25:54.015Z,2.70
2023-01-25T14:41:20.216Z,3.30
2023-01-25T14:56:26.705Z,3.30
2023-01-25T15:11:48.974Z,3.10
2023-01-25T15:26:53.251Z,3.20
2023-01-25T15:41:55.833Z,3.20
2023-01-25T15:56:59.333Z,3.10
2023-01-25T16:12:02.305Z,2.80
2023-01-25T16:27:04.585Z,3.10
2023-01-25T16:42:08.894Z,3.10
2023-01-25T16:57:20.384Z,3.00
2023-01-25T17:12:23.098Z,2.90
2023-01-25T17:27:25.678Z,2.70
2023-01-25T17:42:28.149Z,2.90
2023-01-25T17:57:31.531Z,2.90
2023-01-25T18:12:34.067Z,2.50
2023-01-25T18:27:36.578Z,2.30
2023-01-25T18:42:39.411Z,2.30
2023-01-25T18:57:41.659Z,2.30
2023-01-25T19:12:44.258Z,2.30
2023-01-25T19:27:46.909Z,2.60
2023-01-25T19:42:49.426Z,2.80
2023-01-25T19:57:51.943Z,2.60
2023-01-25T20:12:54.562Z,2.60
2023-01-25T20:27:57.399Z,2.30
2023-01-25T20:42:59.755Z,2.20
2023-01-25T20:58:02.183Z,2.20
2023-01-25T21:13:04.767Z,2.10
2023-01-25T21:28:07.384Z,2.20
2023-01-25T21:43:11.596Z,2.00
2023-01-25T21:58:14.312Z,2.00
2023-01-25T22:13:16.686Z,2.10
2023-01-25T22:28:19.730Z,2.00
2023-01-25T22:43:22.144Z,2.00
2023-01-25T22:58:24.735Z,2.00
2023-01-25T23:13:27.514Z,2.10
2023-01-25T23:28:30.840Z,2.00
2023-01-25T23:43:33.477Z,2.00
2023-01-25T23:58:37.445Z,2.10
